Terminal Aerodrome Forecast
Issued by NWS Tampa Bay Area, FL

Home | Current Version | Previous Version | Text Only | Print | Product List | Glossary On
Versions: 1 2 3 4 5 6 7 8 9 10 11 12 13 14 15 16 17 18 19
000
FTUS42 KTBW 202300
TAFFMY
TAF
KFMY 202333Z 2100/2124 27005KT P6SM BKN080 BKN250
     FM210500 VRB03KT P6SM BKN090 BKN250
     FM211900 22005KT P6SM VCTS SCT035CB BKN250=

USA.gov is the U.S. government's official web portal to all federal, state and local government web resources and services.